sensor_id;sensor_type;location;lat;lon;timestamp;pressure;altitude;pressure_sealevel;temperature;humidity
69245;BME280;56357;52.304;4.870;2023-01-16T00:01:23;99738.84;;;17.10;55.62
69245;BME280;56357;52.304;4.870;2023-01-16T00:03:50;99729.69;;;17.04;55.53
69245;BME280;56357;52.304;4.870;2023-01-16T00:06:16;99720.50;;;17.04;55.72
69245;BME280;56357;52.304;4.870;2023-01-16T00:08:43;99715.19;;;17.02;55.98
69245;BME280;56357;52.304;4.870;2023-01-16T00:11:11;99714.63;;;17.00;55.41
69245;BME280;56357;52.304;4.870;2023-01-16T00:13:37;99706.56;;;16.99;55.65
69245;BME280;56357;52.304;4.870;2023-01-16T00:16:05;99703.22;;;16.97;55.68
69245;BME280;56357;52.304;4.870;2023-01-16T00:18:31;99706.88;;;16.97;55.69
69245;BME280;56357;52.304;4.870;2023-01-16T00:20:58;99691.50;;;16.95;55.37
69245;BME280;56357;52.304;4.870;2023-01-16T00:23:24;99691.81;;;16.93;55.57
69245;BME280;56357;52.304;4.870;2023-01-16T00:25:51;99676.25;;;16.87;55.38
69245;BME280;56357;52.304;4.870;2023-01-16T00:28:17;99681.53;;;16.89;55.45
69245;BME280;56357;52.304;4.870;2023-01-16T00:30:44;99680.72;;;16.88;55.61
69245;BME280;56357;52.304;4.870;2023-01-16T00:33:11;99675.19;;;16.83;55.93
69245;BME280;56357;52.304;4.870;2023-01-16T00:35:38;99673.53;;;16.82;55.66
69245;BME280;56357;52.304;4.870;2023-01-16T00:38:04;99657.06;;;16.81;55.74
69245;BME280;56357;52.304;4.870;2023-01-16T00:40:31;99647.53;;;16.82;55.65
69245;BME280;56357;52.304;4.870;2023-01-16T00:42:57;99643.97;;;16.76;55.68
69245;BME280;56357;52.304;4.870;2023-01-16T00:45:24;99644.50;;;16.78;55.47
69245;BME280;56357;52.304;4.870;2023-01-16T00:47:51;99643.75;;;16.73;55.72
69245;BME280;56357;52.304;4.870;2023-01-16T00:50:17;99642.28;;;16.75;55.83
69245;BME280;56357;52.304;4.870;2023-01-16T00:52:44;99634.00;;;16.70;55.98
69245;BME280;56357;52.304;4.870;2023-01-16T00:55:10;99619.69;;;16.72;55.93
69245;BME280;56357;52.304;4.870;2023-01-16T00:57:37;99616.38;;;16.70;55.82
69245;BME280;56357;52.304;4.870;2023-01-16T01:00:04;99611.94;;;16.69;55.78
69245;BME280;56357;52.304;4.870;2023-01-16T01:02:30;99606.88;;;16.71;55.52
69245;BME280;56357;52.304;4.870;2023-01-16T01:04:57;99587.44;;;16.61;55.90
69245;BME280;56357;52.304;4.870;2023-01-16T01:07:23;99594.94;;;16.65;55.64
69245;BME280;56357;52.304;4.870;2023-01-16T01:09:50;99587.34;;;16.66;55.46
69245;BME280;56357;52.304;4.870;2023-01-16T01:12:16;99585.78;;;16.60;55.56
69245;BME280;56357;52.304;4.870;2023-01-16T01:14:43;99575.38;;;16.65;55.46
69245;BME280;56357;52.304;4.870;2023-01-16T01:17:09;99568.09;;;16.64;55.58
69245;BME280;56357;52.304;4.870;2023-01-16T01:19:36;99565.38;;;16.59;55.64
69245;BME280;56357;52.304;4.870;2023-01-16T01:22:02;99564.56;;;16.59;55.80
69245;BME280;56357;52.304;4.870;2023-01-16T01:24:29;99569.56;;;16.62;55.82
69245;BME280;56357;52.304;4.870;2023-01-16T01:26:55;99567.34;;;16.59;55.31
69245;BME280;56357;52.304;4.870;2023-01-16T01:29:22;99550.44;;;16.50;55.55
69245;BME280;56357;52.304;4.870;2023-01-16T01:31:48;99553.16;;;16.55;55.63
69245;BME280;56357;52.304;4.870;2023-01-16T01:34:14;99547.03;;;16.53;55.59
69245;BME280;56357;52.304;4.870;2023-01-16T01:36:41;99535.94;;;16.48;55.46
69245;BME280;56357;52.304;4.870;2023-01-16T01:39:07;99539.53;;;16.48;55.57
69245;BME280;56357;52.304;4.870;2023-01-16T01:41:34;99530.03;;;16.50;55.27
69245;BME280;56357;52.304;4.870;2023-01-16T01:44:00;99531.16;;;16.48;55.50
69245;BME280;56357;52.304;4.870;2023-01-16T01:46:28;99519.41;;;16.46;55.06
69245;BME280;56357;52.304;4.870;2023-01-16T01:49:18;99521.09;;;16.47;55.33
69245;BME280;56357;52.304;4.870;2023-01-16T01:51:47;99522.22;;;16.46;55.53
69245;BME280;56357;52.304;4.870;2023-01-16T01:54:22;99508.31;;;16.41;55.51
69245;BME280;56357;52.304;4.870;2023-01-16T01:56:57;99522.00;;;16.43;55.65
69245;BME280;56357;52.304;4.870;2023-01-16T01:59:38;99512.53;;;16.39;55.44
69245;BME280;56357;52.304;4.870;2023-01-16T02:02:07;99513.06;;;16.41;55.39
69245;BME280;56357;52.304;4.870;2023-01-16T02:04:40;99512.28;;;16.40;55.35
69245;BME280;56357;52.304;4.870;2023-01-16T02:07:09;99501.22;;;16.30;55.31
69245;BME280;56357;52.304;4.870;2023-01-16T02:09:38;99486.66;;;16.33;55.34
69245;BME280;56357;52.304;4.870;2023-01-16T02:12:10;99483.53;;;16.35;55.45
69245;BME280;56357;52.304;4.870;2023-01-16T02:14:39;99480.75;;;16.35;55.38
69245;BME280;56357;52.304;4.870;2023-01-16T02:17:13;99466.88;;;16.30;55.44
69245;BME280;56357;52.304;4.870;2023-01-16T02:32:03;99457.97;;;16.28;55.42
69245;BME280;56357;52.304;4.870;2023-01-16T02:34:26;99446.03;;;16.22;55.53
69245;BME280;56357;52.304;4.870;2023-01-16T02:37:53;99457.22;;;16.22;55.45
69245;BME280;56357;52.304;4.870;2023-01-16T02:42:51;99443.06;;;16.14;55.04
69245;BME280;56357;52.304;4.870;2023-01-16T02:45:32;99447.56;;;16.15;55.59
69245;BME280;56357;52.304;4.870;2023-01-16T02:48:11;99443.06;;;16.14;55.43
69245;BME280;56357;52.304;4.870;2023-01-16T02:51:04;99440.00;;;16.15;55.34
69245;BME280;56357;52.304;4.870;2023-01-16T02:56:43;99431.53;;;16.20;55.41
69245;BME280;56357;52.304;4.870;2023-01-16T02:59:12;99424.91;;;16.16;55.39
69245;BME280;56357;52.304;4.870;2023-01-16T03:01:39;99420.69;;;16.19;55.21
69245;BME280;56357;52.304;4.870;2023-01-16T03:07:33;99399.38;;;16.23;55.42
69245;BME280;56357;52.304;4.870;2023-01-16T03:15:44;99380.13;;;16.21;55.21
69245;BME280;56357;52.304;4.870;2023-01-16T03:18:50;99360.50;;;16.26;55.34
69245;BME280;56357;52.304;4.870;2023-01-16T03:27:14;99325.09;;;16.22;55.71
69245;BME280;56357;52.304;4.870;2023-01-16T03:29:57;99320.16;;;16.32;55.16
69245;BME280;56357;52.304;4.870;2023-01-16T03:32:30;99316.63;;;16.27;55.37
69245;BME280;56357;52.304;4.870;2023-01-16T03:35:04;99309.59;;;16.29;55.68
69245;BME280;56357;52.304;4.870;2023-01-16T03:37:35;99299.56;;;16.28;55.31
69245;BME280;56357;52.304;4.870;2023-01-16T03:40:08;99294.09;;;16.37;55.31
69245;BME280;56357;52.304;4.870;2023-01-16T03:42:42;99294.72;;;16.34;55.32
69245;BME280;56357;52.304;4.870;2023-01-16T03:45:22;99281.66;;;16.29;55.29
69245;BME280;56357;52.304;4.870;2023-01-16T03:48:21;99294.41;;;16.35;55.51
69245;BME280;56357;52.304;4.870;2023-01-16T03:50:51;99284.38;;;16.34;55.35
69245;BME280;56357;52.304;4.870;2023-01-16T03:53:22;99288.28;;;16.33;55.59
69245;BME280;56357;52.304;4.870;2023-01-16T03:56:00;99272.97;;;16.31;55.49
69245;BME280;56357;52.304;4.870;2023-01-16T03:58:34;99261.78;;;16.31;55.67
69245;BME280;56357;52.304;4.870;2023-01-16T04:03:59;99255.81;;;16.37;55.49
69245;BME280;56357;52.304;4.870;2023-01-16T04:06:35;99248.78;;;16.40;55.37
69245;BME280;56357;52.304;4.870;2023-01-16T04:09:08;99242.38;;;16.39;55.37
69245;BME280;56357;52.304;4.870;2023-01-16T04:11:38;99235.94;;;16.39;55.40
69245;BME280;56357;52.304;4.870;2023-01-16T04:14:08;99220.66;;;16.36;55.41
69245;BME280;56357;52.304;4.870;2023-01-16T04:16:36;99215.34;;;16.35;55.73
69245;BME280;56357;52.304;4.870;2023-01-16T04:19:05;99207.47;;;16.37;55.68
69245;BME280;56357;52.304;4.870;2023-01-16T04:21:32;99197.47;;;16.36;55.32
69245;BME280;56357;52.304;4.870;2023-01-16T04:23:58;99186.81;;;16.38;55.59
69245;BME280;56357;52.304;4.870;2023-01-16T04:26:26;99188.16;;;16.40;55.66
69245;BME280;56357;52.304;4.870;2023-01-16T04:28:53;99172.00;;;16.37;55.28
69245;BME280;56357;52.304;4.870;2023-01-16T04:31:24;99169.72;;;16.39;55.59
69245;BME280;56357;52.304;4.870;2023-01-16T04:33:52;99162.78;;;16.37;55.80
69245;BME280;56357;52.304;4.870;2023-01-16T04:36:19;99159.69;;;16.38;55.90
69245;BME280;56357;52.304;4.870;2023-01-16T04:38:45;99146.84;;;16.37;55.70
69245;BME280;56357;52.304;4.870;2023-01-16T04:41:12;99141.16;;;16.42;55.92
69245;BME280;56357;52.304;4.870;2023-01-16T04:43:59;99139.50;;;16.41;55.22
69245;BME280;56357;52.304;4.870;2023-01-16T04:46:25;99122.44;;;16.43;55.87
69245;BME280;56357;52.304;4.870;2023-01-16T04:48:52;99109.28;;;16.43;55.63
69245;BME280;56357;52.304;4.870;2023-01-16T04:51:18;99098.53;;;16.37;56.02
69245;BME280;56357;52.304;4.870;2023-01-16T04:53:44;99094.41;;;16.34;55.88
69245;BME280;56357;52.304;4.870;2023-01-16T04:56:11;99090.38;;;16.40;55.75
69245;BME280;56357;52.304;4.870;2023-01-16T04:58:37;99083.44;;;16.38;55.83
69245;BME280;56357;52.304;4.870;2023-01-16T05:01:04;99073.09;;;16.38;56.11
69245;BME280;56357;52.304;4.870;2023-01-16T05:03:30;99068.03;;;16.40;55.58
69245;BME280;56357;52.304;4.870;2023-01-16T05:05:57;99057.97;;;16.39;55.83
69245;BME280;56357;52.304;4.870;2023-01-16T05:08:23;99043.47;;;16.37;55.48
69245;BME280;56357;52.304;4.870;2023-01-16T05:10:52;99044.84;;;16.40;55.99
69245;BME280;56357;52.304;4.870;2023-01-16T05:13:22;99041.53;;;16.52;55.74
69245;BME280;56357;52.304;4.870;2023-01-16T05:15:48;99027.75;;;16.41;56.17
69245;BME280;56357;52.304;4.870;2023-01-16T05:18:15;99029.91;;;16.44;55.64
69245;BME280;56357;52.304;4.870;2023-01-16T05:20:42;99015.31;;;16.47;55.80
69245;BME280;56357;52.304;4.870;2023-01-16T05:23:09;99001.44;;;16.42;55.88
69245;BME280;56357;52.304;4.870;2023-01-16T05:25:36;98998.38;;;16.44;55.85
69245;BME280;56357;52.304;4.870;2023-01-16T05:28:03;98985.13;;;16.36;55.73
69245;BME280;56357;52.304;4.870;2023-01-16T05:30:29;98978.72;;;16.35;56.03
69245;BME280;56357;52.304;4.870;2023-01-16T05:32:56;98966.69;;;16.48;56.00
69245;BME280;56357;52.304;4.870;2023-01-16T05:35:22;98966.09;;;16.52;55.77
69245;BME280;56357;52.304;4.870;2023-01-16T05:37:49;98958.50;;;16.52;55.73
69245;BME280;56357;52.304;4.870;2023-01-16T05:40:16;98948.50;;;16.51;55.63
69245;BME280;56357;52.304;4.870;2023-01-16T05:42:43;98939.19;;;16.42;56.09
69245;BME280;56357;52.304;4.870;2023-01-16T05:45:10;98933.69;;;16.51;55.88
69245;BME280;56357;52.304;4.870;2023-01-16T05:47:36;98919.91;;;16.54;55.72
69245;BME280;56357;52.304;4.870;2023-01-16T05:50:03;98910.19;;;16.52;55.87
69245;BME280;56357;52.304;4.870;2023-01-16T05:52:30;98899.72;;;16.57;55.66
69245;BME280;56357;52.304;4.870;2023-01-16T05:54:56;98891.78;;;16.51;55.72
69245;BME280;56357;52.304;4.870;2023-01-16T05:57:23;98885.84;;;16.52;55.75
69245;BME280;56357;52.304;4.870;2023-01-16T05:59:50;98882.00;;;16.62;55.72
69245;BME280;56357;52.304;4.870;2023-01-16T06:02:18;98881.00;;;16.58;55.75
69245;BME280;56357;52.304;4.870;2023-01-16T06:04:45;98876.41;;;16.62;55.89
69245;BME280;56357;52.304;4.870;2023-01-16T06:07:12;98864.09;;;16.63;55.87
69245;BME280;56357;52.304;4.870;2023-01-16T06:09:39;98849.59;;;16.61;56.04
69245;BME280;56357;52.304;4.870;2023-01-16T06:12:06;98854.94;;;16.71;56.12
69245;BME280;56357;52.304;4.870;2023-01-16T06:14:34;98850.78;;;16.68;56.21
69245;BME280;56357;52.304;4.870;2023-01-16T06:17:00;98824.38;;;16.52;55.84
69245;BME280;56357;52.304;4.870;2023-01-16T06:19:27;98835.97;;;16.59;54.69
69245;BME280;56357;52.304;4.870;2023-01-16T06:21:53;98824.38;;;16.52;55.09
69245;BME280;56357;52.304;4.870;2023-01-16T06:24:19;98823.09;;;16.58;54.99
69245;BME280;56357;52.304;4.870;2023-01-16T06:26:46;98817.22;;;16.60;55.24
69245;BME280;56357;52.304;4.870;2023-01-16T06:29:12;98809.97;;;16.59;55.26
69245;BME280;56357;52.304;4.870;2023-01-16T06:31:39;98813.97;;;16.66;55.56
69245;BME280;56357;52.304;4.870;2023-01-16T06:34:05;98805.22;;;16.59;55.90
69245;BME280;56357;52.304;4.870;2023-01-16T06:36:32;98796.69;;;16.64;55.50
69245;BME280;56357;52.304;4.870;2023-01-16T06:38:58;98803.59;;;16.67;56.05
69245;BME280;56357;52.304;4.870;2023-01-16T06:41:25;98797.75;;;16.77;55.86
69245;BME280;56357;52.304;4.870;2023-01-16T06:43:51;98795.06;;;16.72;56.12
69245;BME280;56357;52.304;4.870;2023-01-16T06:46:18;98786.06;;;16.75;56.07
69245;BME280;56357;52.304;4.870;2023-01-16T06:48:44;98777.34;;;16.76;55.72
69245;BME280;56357;52.304;4.870;2023-01-16T06:51:11;98787.19;;;16.74;56.69
69245;BME280;56357;52.304;4.870;2023-01-16T06:53:37;98782.09;;;16.76;56.64
69245;BME280;56357;52.304;4.870;2023-01-16T06:56:04;98777.03;;;16.78;56.60
69245;BME280;56357;52.304;4.870;2023-01-16T06:58:30;98760.13;;;16.83;56.52
69245;BME280;56357;52.304;4.870;2023-01-16T07:00:56;98761.25;;;16.82;56.63
69245;BME280;56357;52.304;4.870;2023-01-16T07:03:23;98752.72;;;16.87;56.82
69245;BME280;56357;52.304;4.870;2023-01-16T07:05:50;98752.41;;;16.88;57.33
69245;BME280;56357;52.304;4.870;2023-01-16T07:08:16;98738.22;;;16.85;57.18
69245;BME280;56357;52.304;4.870;2023-01-16T07:10:42;98726.09;;;16.89;56.85
69245;BME280;56357;52.304;4.870;2023-01-16T07:13:09;98719.88;;;16.92;56.79
69245;BME280;56357;52.304;4.870;2023-01-16T07:15:36;98710.78;;;16.87;57.06
69245;BME280;56357;52.304;4.870;2023-01-16T07:18:21;98703.09;;;16.92;56.91
69245;BME280;56357;52.304;4.870;2023-01-16T07:21:10;98699.03;;;16.68;57.56
69245;BME280;56357;52.304;4.870;2023-01-16T07:24:02;98682.78;;;16.70;57.17
69245;BME280;56357;52.304;4.870;2023-01-16T07:26:29;98681.66;;;16.79;57.28
69245;BME280;56357;52.304;4.870;2023-01-16T07:28:57;98669.97;;;16.69;57.33
69245;BME280;56357;52.304;4.870;2023-01-16T07:31:25;98661.78;;;16.81;56.85
69245;BME280;56357;52.304;4.870;2023-01-16T07:33:52;98652.72;;;16.84;57.12
69245;BME280;56357;52.304;4.870;2023-01-16T07:36:18;98650.28;;;16.91;56.66
69245;BME280;56357;52.304;4.870;2023-01-16T07:38:45;98646.66;;;16.82;56.63
69245;BME280;56357;52.304;4.870;2023-01-16T07:41:11;98640.22;;;16.81;57.16
69245;BME280;56357;52.304;4.870;2023-01-16T07:43:39;98634.50;;;16.86;56.59
69245;BME280;56357;52.304;4.870;2023-01-16T07:46:05;98618.53;;;16.87;57.00
69245;BME280;56357;52.304;4.870;2023-01-16T07:48:32;98615.72;;;16.87;57.09
69245;BME280;56357;52.304;4.870;2023-01-16T07:50:59;98620.69;;;16.90;56.40
69245;BME280;56357;52.304;4.870;2023-01-16T07:53:27;98613.28;;;16.94;56.78
69245;BME280;56357;52.304;4.870;2023-01-16T07:55:56;98604.53;;;16.78;56.90
69245;BME280;56357;52.304;4.870;2023-01-16T07:58:23;98600.59;;;16.71;57.73
69245;BME280;56357;52.304;4.870;2023-01-16T08:00:52;98594.03;;;16.84;57.11
69245;BME280;56357;52.304;4.870;2023-01-16T08:03:19;98587.13;;;16.73;57.34
69245;BME280;56357;52.304;4.870;2023-01-16T08:05:46;98571.31;;;16.85;57.25
69245;BME280;56357;52.304;4.870;2023-01-16T08:08:13;98567.22;;;16.91;56.74
69245;BME280;56357;52.304;4.870;2023-01-16T08:10:40;98561.81;;;16.86;57.36
69245;BME280;56357;52.304;4.870;2023-01-16T08:13:06;98542.22;;;16.95;56.95
69245;BME280;56357;52.304;4.870;2023-01-16T08:15:33;98525.97;;;16.88;57.15
69245;BME280;56357;52.304;4.870;2023-01-16T08:18:12;98522.66;;;16.95;57.10
69245;BME280;56357;52.304;4.870;2023-01-16T08:20:39;98506.72;;;16.95;56.89
69245;BME280;56357;52.304;4.870;2023-01-16T08:23:07;98505.88;;;16.95;57.10
69245;BME280;56357;52.304;4.870;2023-01-16T08:25:34;98500.13;;;17.00;57.48
69245;BME280;56357;52.304;4.870;2023-01-16T08:28:00;98497.34;;;17.00;57.21
69245;BME280;56357;52.304;4.870;2023-01-16T08:30:27;98490.91;;;16.99;57.16
69245;BME280;56357;52.304;4.870;2023-01-16T08:33:00;98487.94;;;17.04;57.33
69245;BME280;56357;52.304;4.870;2023-01-16T08:35:27;98470.22;;;16.92;57.60
69245;BME280;56357;52.304;4.870;2023-01-16T08:37:54;98471.34;;;16.99;57.43
69245;BME280;56357;52.304;4.870;2023-01-16T08:40:21;98452.91;;;16.98;57.56
69245;BME280;56357;52.304;4.870;2023-01-16T08:42:47;98461.00;;;17.00;57.74
69245;BME280;56357;52.304;4.870;2023-01-16T08:45:31;98443.56;;;16.94;57.71
69245;BME280;56357;52.304;4.870;2023-01-16T08:48:19;98457.03;;;17.01;57.71
69245;BME280;56357;52.304;4.870;2023-01-16T08:51:04;98441.22;;;16.96;57.81
69245;BME280;56357;52.304;4.870;2023-01-16T08:53:51;98438.59;;;17.08;57.43
69245;BME280;56357;52.304;4.870;2023-01-16T08:56:22;98448.16;;;17.07;57.74
69245;BME280;56357;52.304;4.870;2023-01-16T08:58:49;98430.53;;;17.07;57.19
69245;BME280;56357;52.304;4.870;2023-01-16T09:01:16;98418.38;;;17.03;57.30
69245;BME280;56357;52.304;4.870;2023-01-16T09:03:44;98412.97;;;16.98;57.33
69245;BME280;56357;52.304;4.870;2023-01-16T09:06:11;98416.06;;;17.05;57.39
69245;BME280;56357;52.304;4.870;2023-01-16T09:08:38;98408.03;;;17.03;57.53
69245;BME280;56357;52.304;4.870;2023-01-16T09:11:04;98405.84;;;17.09;57.33
69245;BME280;56357;52.304;4.870;2023-01-16T09:13:48;98408.50;;;17.05;57.78
69245;BME280;56357;52.304;4.870;2023-01-16T09:16:17;98392.88;;;17.04;57.60
69245;BME280;56357;52.304;4.870;2023-01-16T09:18:43;98391.94;;;16.92;57.94
69245;BME280;56357;52.304;4.870;2023-01-16T09:21:10;98391.94;;;16.83;58.24
69245;BME280;56357;52.304;4.870;2023-01-16T09:23:37;98378.75;;;17.01;57.93
69245;BME280;56357;52.304;4.870;2023-01-16T09:26:03;98370.16;;;17.06;57.48
69245;BME280;56357;52.304;4.870;2023-01-16T09:28:30;98372.13;;;17.14;57.55
69245;BME280;56357;52.304;4.870;2023-01-16T09:30:56;98360.84;;;17.39;56.77
69245;BME280;56357;52.304;4.870;2023-01-16T09:33:23;98350.53;;;17.23;57.08
69245;BME280;56357;52.304;4.870;2023-01-16T09:35:49;98346.09;;;17.22;56.81
69245;BME280;56357;52.304;4.870;2023-01-16T09:38:16;98348.53;;;17.32;57.26
69245;BME280;56357;52.304;4.870;2023-01-16T09:40:44;98333.56;;;17.28;57.27
69245;BME280;56357;52.304;4.870;2023-01-16T09:43:35;98334.91;;;17.22;57.61
69245;BME280;56357;52.304;4.870;2023-01-16T09:46:25;98326.81;;;17.29;57.58
69245;BME280;56357;52.304;4.870;2023-01-16T09:51:28;98321.19;;;17.37;57.59
69245;BME280;56357;52.304;4.870;2023-01-16T09:54:11;98319.84;;;17.44;57.79
69245;BME280;56357;52.304;4.870;2023-01-16T09:56:58;98306.97;;;17.51;57.03
69245;BME280;56357;52.304;4.870;2023-01-16T09:59:52;98299.19;;;17.57;57.26
69245;BME280;56357;52.304;4.870;2023-01-16T10:02:27;98300.03;;;17.57;57.05
69245;BME280;56357;52.304;4.870;2023-01-16T10:04:55;98295.91;;;17.55;57.48
69245;BME280;56357;52.304;4.870;2023-01-16T10:10:38;98292.53;;;17.70;57.02
69245;BME280;56357;52.304;4.870;2023-01-16T10:21:56;98265.31;;;17.79;56.86
69245;BME280;56357;52.304;4.870;2023-01-16T10:27:18;98267.19;;;17.87;56.64
69245;BME280;56357;52.304;4.870;2023-01-16T10:29:56;98256.22;;;17.82;56.62
69245;BME280;56357;52.304;4.870;2023-01-16T10:37:44;98243.03;;;17.62;57.91
69245;BME280;56357;52.304;4.870;2023-01-16T10:40:21;98245.16;;;17.65;57.47
69245;BME280;56357;52.304;4.870;2023-01-16T10:42:58;98244.06;;;17.57;58.01
69245;BME280;56357;52.304;4.870;2023-01-16T10:45:43;98237.50;;;17.53;58.31
69245;BME280;56357;52.304;4.870;2023-01-16T10:48:41;98231.78;;;17.70;57.80
69245;BME280;56357;52.304;4.870;2023-01-16T10:51:26;98235.06;;;17.72;57.76
69245;BME280;56357;52.304;4.870;2023-01-16T10:53:52;98231.06;;;17.73;57.78
69245;BME280;56357;52.304;4.870;2023-01-16T10:56:19;98211.84;;;17.72;57.65
69245;BME280;56357;52.304;4.870;2023-01-16T10:58:45;98208.69;;;17.73;57.96
69245;BME280;56357;52.304;4.870;2023-01-16T11:01:23;98202.28;;;17.73;57.54
69245;BME280;56357;52.304;4.870;2023-01-16T11:03:57;98197.97;;;17.75;57.25
69245;BME280;56357;52.304;4.870;2023-01-16T11:06:29;98195.88;;;17.72;57.62
69245;BME280;56357;52.304;4.870;2023-01-16T11:09:01;98190.25;;;17.72;57.36
69245;BME280;56357;52.304;4.870;2023-01-16T11:11:29;98180.09;;;17.68;57.41
69245;BME280;56357;52.304;4.870;2023-01-16T11:14:25;98177.28;;;17.68;57.25
69245;BME280;56357;52.304;4.870;2023-01-16T11:17:26;98168.41;;;17.66;57.38
69245;BME280;56357;52.304;4.870;2023-01-16T11:20:34;98173.88;;;17.62;57.32
69245;BME280;56357;52.304;4.870;2023-01-16T11:23:19;98158.59;;;17.60;57.54
69245;BME280;56357;52.304;4.870;2023-01-16T11:25:49;98157.78;;;17.59;57.65
69245;BME280;56357;52.304;4.870;2023-01-16T11:28:26;98155.47;;;17.61;57.33
69245;BME280;56357;52.304;4.870;2023-01-16T11:30:56;98143.44;;;17.61;57.40
69245;BME280;56357;52.304;4.870;2023-01-16T11:33:26;98136.06;;;17.56;57.27
69245;BME280;56357;52.304;4.870;2023-01-16T11:35:57;98140.03;;;17.55;56.93
69245;BME280;56357;52.304;4.870;2023-01-16T11:38:27;98124.63;;;17.49;56.54
69245;BME280;56357;52.304;4.870;2023-01-16T11:40:56;98126.19;;;17.59;57.12
69245;BME280;56357;52.304;4.870;2023-01-16T11:43:25;98131.72;;;17.67;56.94
69245;BME280;56357;52.304;4.870;2023-01-16T11:46:39;98124.19;;;17.59;57.70
69245;BME280;56357;52.304;4.870;2023-01-16T11:49:24;98121.66;;;17.66;57.32
69245;BME280;56357;52.304;4.870;2023-01-16T11:51:54;98115.59;;;17.64;57.28
69245;BME280;56357;52.304;4.870;2023-01-16T11:54:28;98114.44;;;17.65;57.50
69245;BME280;56357;52.304;4.870;2023-01-16T12:11:06;98072.47;;;17.65;58.02
69245;BME280;56357;52.304;4.870;2023-01-16T12:27:58;98049.91;;;17.62;57.44
69245;BME280;56357;52.304;4.870;2023-01-16T12:39:28;98031.97;;;17.63;57.81
69245;BME280;56357;52.304;4.870;2023-01-16T12:59:10;98008.41;;;17.64;57.63
69245;BME280;56357;52.304;4.870;2023-01-16T13:01:41;98009.81;;;17.58;57.57
69245;BME280;56357;52.304;4.870;2023-01-16T13:06:51;97995.84;;;17.70;57.34
69245;BME280;56357;52.304;4.870;2023-01-16T13:12:01;97981.00;;;17.57;57.49
69245;BME280;56357;52.304;4.870;2023-01-16T13:14:51;97983.34;;;17.55;57.60
69245;BME280;56357;52.304;4.870;2023-01-16T13:17:27;97980.31;;;17.60;57.17
69245;BME280;56357;52.304;4.870;2023-01-16T13:20:01;97973.44;;;17.58;57.29
69245;BME280;56357;52.304;4.870;2023-01-16T13:22:46;97972.84;;;17.64;56.81
69245;BME280;56357;52.304;4.870;2023-01-16T13:25:37;97982.50;;;17.55;57.48
69245;BME280;56357;52.304;4.870;2023-01-16T13:30:59;97974.19;;;18.03;55.87
69245;BME280;56357;52.304;4.870;2023-01-16T13:33:32;97971.69;;;17.77;56.91
69245;BME280;56357;52.304;4.870;2023-01-16T13:36:10;97971.69;;;17.77;57.00
69245;BME280;56357;52.304;4.870;2023-01-16T13:41:39;97971.69;;;17.77;56.86
69245;BME280;56357;52.304;4.870;2023-01-16T13:44:14;97963.91;;;17.71;56.52
69245;BME280;56357;52.304;4.870;2023-01-16T13:47:06;97963.06;;;17.70;57.00
69245;BME280;56357;52.304;4.870;2023-01-16T13:49:34;97950.69;;;17.59;56.79
69245;BME280;56357;52.304;4.870;2023-01-16T13:52:03;97952.44;;;17.64;57.16
69245;BME280;56357;52.304;4.870;2023-01-16T13:54:38;97949.16;;;17.62;56.96
69245;BME280;56357;52.304;4.870;2023-01-16T13:57:20;97956.28;;;17.59;56.66
69245;BME280;56357;52.304;4.870;2023-01-16T13:59:54;97950.31;;;17.49;57.36
69245;BME280;56357;52.304;4.870;2023-01-16T14:10:42;97945.09;;;17.59;57.84
69245;BME280;56357;52.304;4.870;2023-01-16T14:21:21;97944.50;;;17.66;56.46
69245;BME280;56357;52.304;4.870;2023-01-16T14:23:54;97939.75;;;17.66;55.95
69245;BME280;56357;52.304;4.870;2023-01-16T14:26:46;97938.44;;;17.52;56.69
69245;BME280;56357;52.304;4.870;2023-01-16T14:29:35;97941.78;;;17.45;56.82
69245;BME280;56357;52.304;4.870;2023-01-16T14:32:14;97938.44;;;17.52;56.36
69245;BME280;56357;52.304;4.870;2023-01-16T14:34:51;97939.75;;;17.66;55.85
69245;BME280;56357;52.304;4.870;2023-01-16T14:37:33;97938.94;;;17.78;55.80
69245;BME280;56357;52.304;4.870;2023-01-16T14:42:39;97927.03;;;17.81;55.33
69245;BME280;56357;52.304;4.870;2023-01-16T14:45:32;97934.59;;;17.92;55.51
69245;BME280;56357;52.304;4.870;2023-01-16T14:51:16;97925.53;;;17.83;54.94
69245;BME280;56357;52.304;4.870;2023-01-16T14:54:08;97925.63;;;17.87;55.29
69245;BME280;56357;52.304;4.870;2023-01-16T14:57:16;97916.09;;;17.88;55.07
69245;BME280;56357;52.304;4.870;2023-01-16T15:00:02;97922.94;;;18.02;54.56
69245;BME280;56357;52.304;4.870;2023-01-16T15:02:37;97920.41;;;17.97;54.37
69245;BME280;56357;52.304;4.870;2023-01-16T15:05:20;97922.38;;;17.97;54.40
69245;BME280;56357;52.304;4.870;2023-01-16T15:07:54;97924.34;;;18.08;54.28
69245;BME280;56357;52.304;4.870;2023-01-16T15:12:51;97913.88;;;18.05;54.32
69245;BME280;56357;52.304;4.870;2023-01-16T15:15:27;97916.56;;;17.90;54.59
69245;BME280;56357;52.304;4.870;2023-01-16T15:17:56;97910.94;;;17.78;54.27
69245;BME280;56357;52.304;4.870;2023-01-16T15:20:43;97916.78;;;17.97;54.42
69245;BME280;56357;52.304;4.870;2023-01-16T15:23:30;97922.84;;;17.99;54.29
69245;BME280;56357;52.304;4.870;2023-01-16T15:31:11;97922.69;;;17.71;54.28
69245;BME280;56357;52.304;4.870;2023-01-16T15:33:40;97917.34;;;17.66;54.57
69245;BME280;56357;52.304;4.870;2023-01-16T15:36:22;97922.94;;;17.66;54.48
69245;BME280;56357;52.304;4.870;2023-01-16T15:38:55;97917.13;;;17.59;54.45
69245;BME280;56357;52.304;4.870;2023-01-16T15:41:26;97925.97;;;17.61;54.70
69245;BME280;56357;52.304;4.870;2023-01-16T15:44:16;97925.97;;;17.61;54.26
69245;BME280;56357;52.304;4.870;2023-01-16T15:52:38;97950.94;;;17.66;54.33
69245;BME280;56357;52.304;4.870;2023-01-16T15:55:26;97949.75;;;17.55;54.36
69245;BME280;56357;52.304;4.870;2023-01-16T15:57:58;97944.41;;;17.62;54.62
69245;BME280;56357;52.304;4.870;2023-01-16T16:00:32;97941.84;;;17.57;54.86
69245;BME280;56357;52.304;4.870;2023-01-16T16:03:09;97955.94;;;17.61;54.15
69245;BME280;56357;52.304;4.870;2023-01-16T16:05:39;97964.09;;;17.54;53.89